sensor_id;sensor_type;location;lat;lon;timestamp;P1;durP1;ratioP1;P2;durP2;ratioP2
9834;SDS011;69850;50.942;13.748;2023-07-30T00:00:13;2.42;;;2.10;;
9834;SDS011;69850;50.942;13.748;2023-07-30T00:03:34;4.25;;;2.22;;
9834;SDS011;69850;50.942;13.748;2023-07-30T00:06:54;4.10;;;2.42;;
9834;SDS011;69850;50.942;13.748;2023-07-30T00:10:15;4.68;;;2.40;;
9834;SDS011;69850;50.942;13.748;2023-07-30T00:13:36;4.03;;;2.45;;
9834;SDS011;69850;50.942;13.748;2023-07-30T00:16:57;4.47;;;2.60;;
9834;SDS011;69850;50.942;13.748;2023-07-30T00:20:17;2.88;;;2.58;;
9834;SDS011;69850;50.942;13.748;2023-07-30T00:23:38;6.07;;;2.20;;
9834;SDS011;69850;50.942;13.748;2023-07-30T00:26:59;3.45;;;2.22;;
9834;SDS011;69850;50.942;13.748;2023-07-30T00:30:19;3.65;;;2.20;;
9834;SDS011;69850;50.942;13.748;2023-07-30T00:33:40;5.10;;;2.45;;
9834;SDS011;69850;50.942;13.748;2023-07-30T00:37:01;3.05;;;2.47;;
9834;SDS011;69850;50.942;13.748;2023-07-30T00:40:22;3.38;;;2.33;;
9834;SDS011;69850;50.942;13.748;2023-07-30T00:43:42;5.05;;;2.30;;
9834;SDS011;69850;50.942;13.748;2023-07-30T00:47:03;2.85;;;2.25;;
9834;SDS011;69850;50.942;13.748;2023-07-30T00:50:24;3.88;;;2.50;;
9834;SDS011;69850;50.942;13.748;2023-07-30T00:53:45;2.40;;;2.20;;
9834;SDS011;69850;50.942;13.748;2023-07-30T00:57:07;5.65;;;2.40;;
9834;SDS011;69850;50.942;13.748;2023-07-30T01:00:30;3.15;;;2.20;;
9834;SDS011;69850;50.942;13.748;2023-07-30T01:03:51;2.70;;;2.45;;
9834;SDS011;69850;50.942;13.748;2023-07-30T01:07:11;3.65;;;2.33;;
9834;SDS011;69850;50.942;13.748;2023-07-30T01:10:32;4.10;;;2.20;;
9834;SDS011;69850;50.942;13.748;2023-07-30T01:13:54;4.47;;;2.40;;
9834;SDS011;69850;50.942;13.748;2023-07-30T01:17:14;4.90;;;2.28;;
9834;SDS011;69850;50.942;13.748;2023-07-30T01:20:35;2.97;;;2.28;;
9834;SDS011;69850;50.942;13.748;2023-07-30T01:23:56;4.88;;;2.90;;
9834;SDS011;69850;50.942;13.748;2023-07-30T01:27:25;5.32;;;2.58;;
9834;SDS011;69850;50.942;13.748;2023-07-30T01:30:47;2.60;;;2.40;;
9834;SDS011;69850;50.942;13.748;2023-07-30T01:34:09;3.58;;;2.78;;
9834;SDS011;69850;50.942;13.748;2023-07-30T01:37:33;2.90;;;2.60;;
9834;SDS011;69850;50.942;13.748;2023-07-30T01:40:54;3.92;;;2.65;;
9834;SDS011;69850;50.942;13.748;2023-07-30T01:44:15;2.90;;;2.50;;
9834;SDS011;69850;50.942;13.748;2023-07-30T01:47:36;4.18;;;2.40;;
9834;SDS011;69850;50.942;13.748;2023-07-30T01:50:56;7.22;;;2.42;;
9834;SDS011;69850;50.942;13.748;2023-07-30T01:54:17;3.47;;;2.40;;
9834;SDS011;69850;50.942;13.748;2023-07-30T01:57:38;4.43;;;2.22;;
9834;SDS011;69850;50.942;13.748;2023-07-30T02:00:59;4.97;;;2.40;;
9834;SDS011;69850;50.942;13.748;2023-07-30T02:04:19;3.42;;;2.35;;
9834;SDS011;69850;50.942;13.748;2023-07-30T02:07:40;3.33;;;2.03;;
9834;SDS011;69850;50.942;13.748;2023-07-30T02:11:01;3.22;;;2.25;;
9834;SDS011;69850;50.942;13.748;2023-07-30T02:14:22;2.35;;;2.15;;
9834;SDS011;69850;50.942;13.748;2023-07-30T02:17:43;3.67;;;2.10;;
9834;SDS011;69850;50.942;13.748;2023-07-30T02:21:04;5.13;;;2.45;;
9834;SDS011;69850;50.942;13.748;2023-07-30T02:24:24;3.55;;;2.40;;
9834;SDS011;69850;50.942;13.748;2023-07-30T02:27:45;3.05;;;2.20;;
9834;SDS011;69850;50.942;13.748;2023-07-30T02:31:06;3.85;;;2.13;;
9834;SDS011;69850;50.942;13.748;2023-07-30T02:34:26;5.32;;;2.15;;
9834;SDS011;69850;50.942;13.748;2023-07-30T02:37:47;3.35;;;2.20;;
9834;SDS011;69850;50.942;13.748;2023-07-30T02:41:09;4.07;;;2.40;;
9834;SDS011;69850;50.942;13.748;2023-07-30T02:44:29;5.35;;;2.28;;
9834;SDS011;69850;50.942;13.748;2023-07-30T02:47:50;4.53;;;2.33;;
9834;SDS011;69850;50.942;13.748;2023-07-30T02:51:11;5.55;;;2.90;;
9834;SDS011;69850;50.942;13.748;2023-07-30T02:54:31;3.75;;;2.38;;
9834;SDS011;69850;50.942;13.748;2023-07-30T02:57:52;6.53;;;2.58;;
9834;SDS011;69850;50.942;13.748;2023-07-30T03:01:13;5.30;;;2.90;;
9834;SDS011;69850;50.942;13.748;2023-07-30T03:04:34;5.88;;;2.88;;
9834;SDS011;69850;50.942;13.748;2023-07-30T03:07:56;4.70;;;3.17;;
9834;SDS011;69850;50.942;13.748;2023-07-30T03:11:16;3.50;;;2.65;;
9834;SDS011;69850;50.942;13.748;2023-07-30T03:14:37;5.32;;;2.78;;
9834;SDS011;69850;50.942;13.748;2023-07-30T03:17:58;4.57;;;2.60;;
9834;SDS011;69850;50.942;13.748;2023-07-30T03:21:18;3.30;;;3.00;;
9834;SDS011;69850;50.942;13.748;2023-07-30T03:24:39;5.85;;;3.05;;
9834;SDS011;69850;50.942;13.748;2023-07-30T03:28:00;4.43;;;3.10;;
9834;SDS011;69850;50.942;13.748;2023-07-30T03:31:20;4.78;;;2.92;;
9834;SDS011;69850;50.942;13.748;2023-07-30T03:34:41;4.88;;;2.78;;
9834;SDS011;69850;50.942;13.748;2023-07-30T03:38:01;4.22;;;2.88;;
9834;SDS011;69850;50.942;13.748;2023-07-30T03:41:23;3.35;;;2.85;;
9834;SDS011;69850;50.942;13.748;2023-07-30T03:44:44;3.10;;;2.80;;
9834;SDS011;69850;50.942;13.748;2023-07-30T03:48:05;5.20;;;2.92;;
9834;SDS011;69850;50.942;13.748;2023-07-30T03:51:25;5.20;;;3.00;;
9834;SDS011;69850;50.942;13.748;2023-07-30T03:54:46;4.18;;;2.83;;
9834;SDS011;69850;50.942;13.748;2023-07-30T03:58:07;3.00;;;2.65;;
9834;SDS011;69850;50.942;13.748;2023-07-30T04:01:27;6.47;;;2.85;;
9834;SDS011;69850;50.942;13.748;2023-07-30T04:04:49;3.35;;;2.60;;
9834;SDS011;69850;50.942;13.748;2023-07-30T04:08:10;4.95;;;2.97;;
9834;SDS011;69850;50.942;13.748;2023-07-30T04:11:31;4.97;;;3.08;;
9834;SDS011;69850;50.942;13.748;2023-07-30T04:14:52;4.63;;;3.17;;
9834;SDS011;69850;50.942;13.748;2023-07-30T04:18:12;4.55;;;3.20;;
9834;SDS011;69850;50.942;13.748;2023-07-30T04:21:33;4.75;;;3.20;;
9834;SDS011;69850;50.942;13.748;2023-07-30T04:24:55;3.83;;;3.05;;
9834;SDS011;69850;50.942;13.748;2023-07-30T04:28:15;3.60;;;2.90;;
9834;SDS011;69850;50.942;13.748;2023-07-30T04:31:37;6.47;;;3.20;;
9834;SDS011;69850;50.942;13.748;2023-07-30T04:34:57;5.50;;;2.60;;
9834;SDS011;69850;50.942;13.748;2023-07-30T04:38:18;3.67;;;3.13;;
9834;SDS011;69850;50.942;13.748;2023-07-30T04:41:39;4.25;;;2.67;;
9834;SDS011;69850;50.942;13.748;2023-07-30T04:44:59;5.97;;;2.85;;
9834;SDS011;69850;50.942;13.748;2023-07-30T04:48:20;7.30;;;3.20;;
9834;SDS011;69850;50.942;13.748;2023-07-30T04:51:41;5.38;;;2.78;;
9834;SDS011;69850;50.942;13.748;2023-07-30T04:55:02;5.43;;;2.22;;
9834;SDS011;69850;50.942;13.748;2023-07-30T04:58:23;5.10;;;1.90;;
9834;SDS011;69850;50.942;13.748;2023-07-30T05:01:44;5.38;;;2.00;;
9834;SDS011;69850;50.942;13.748;2023-07-30T05:05:04;5.28;;;1.75;;
9834;SDS011;69850;50.942;13.748;2023-07-30T05:08:26;3.20;;;1.92;;
9834;SDS011;69850;50.942;13.748;2023-07-30T05:11:46;6.82;;;2.00;;
9834;SDS011;69850;50.942;13.748;2023-07-30T05:15:07;2.50;;;2.20;;
9834;SDS011;69850;50.942;13.748;2023-07-30T05:18:28;3.47;;;2.30;;
9834;SDS011;69850;50.942;13.748;2023-07-30T05:21:48;2.63;;;1.80;;
9834;SDS011;69850;50.942;13.748;2023-07-30T05:25:09;3.88;;;2.22;;
9834;SDS011;69850;50.942;13.748;2023-07-30T05:28:30;4.45;;;2.17;;
9834;SDS011;69850;50.942;13.748;2023-07-30T05:31:50;4.75;;;2.17;;
9834;SDS011;69850;50.942;13.748;2023-07-30T05:35:11;3.80;;;2.03;;
9834;SDS011;69850;50.942;13.748;2023-07-30T05:38:32;2.53;;;2.17;;
9834;SDS011;69850;50.942;13.748;2023-07-30T05:41:52;5.22;;;2.22;;
9834;SDS011;69850;50.942;13.748;2023-07-30T05:45:13;4.13;;;2.10;;
9834;SDS011;69850;50.942;13.748;2023-07-30T05:48:34;5.75;;;2.38;;
9834;SDS011;69850;50.942;13.748;2023-07-30T05:51:54;3.30;;;1.90;;
9834;SDS011;69850;50.942;13.748;2023-07-30T05:55:15;4.25;;;2.40;;
9834;SDS011;69850;50.942;13.748;2023-07-30T05:58:36;2.42;;;2.17;;
9834;SDS011;69850;50.942;13.748;2023-07-30T06:01:56;5.00;;;2.38;;
9834;SDS011;69850;50.942;13.748;2023-07-30T06:05:19;4.47;;;2.25;;
9834;SDS011;69850;50.942;13.748;2023-07-30T06:08:40;3.38;;;2.08;;
9834;SDS011;69850;50.942;13.748;2023-07-30T06:12:00;3.55;;;2.13;;
9834;SDS011;69850;50.942;13.748;2023-07-30T06:15:21;2.28;;;2.08;;
9834;SDS011;69850;50.942;13.748;2023-07-30T06:18:42;2.70;;;2.33;;
9834;SDS011;69850;50.942;13.748;2023-07-30T06:22:03;2.58;;;2.00;;
9834;SDS011;69850;50.942;13.748;2023-07-30T06:25:24;3.05;;;2.40;;
9834;SDS011;69850;50.942;13.748;2023-07-30T06:28:45;3.33;;;2.75;;
9834;SDS011;69850;50.942;13.748;2023-07-30T06:32:06;2.95;;;2.40;;
9834;SDS011;69850;50.942;13.748;2023-07-30T06:35:27;3.70;;;2.30;;
9834;SDS011;69850;50.942;13.748;2023-07-30T06:38:48;4.22;;;2.30;;
9834;SDS011;69850;50.942;13.748;2023-07-30T06:42:09;2.97;;;2.55;;
9834;SDS011;69850;50.942;13.748;2023-07-30T06:45:30;6.35;;;2.30;;
9834;SDS011;69850;50.942;13.748;2023-07-30T06:48:50;4.85;;;2.30;;
9834;SDS011;69850;50.942;13.748;2023-07-30T06:52:11;2.53;;;2.25;;
9834;SDS011;69850;50.942;13.748;2023-07-30T06:55:32;2.67;;;2.22;;
9834;SDS011;69850;50.942;13.748;2023-07-30T06:58:53;2.58;;;2.38;;
9834;SDS011;69850;50.942;13.748;2023-07-30T07:02:14;5.63;;;2.60;;
9834;SDS011;69850;50.942;13.748;2023-07-30T07:05:35;5.57;;;3.10;;
9834;SDS011;69850;50.942;13.748;2023-07-30T07:08:55;5.60;;;2.40;;
9834;SDS011;69850;50.942;13.748;2023-07-30T07:12:16;3.88;;;2.40;;
9834;SDS011;69850;50.942;13.748;2023-07-30T07:15:37;2.88;;;2.33;;
9834;SDS011;69850;50.942;13.748;2023-07-30T07:18:59;3.53;;;2.42;;
9834;SDS011;69850;50.942;13.748;2023-07-30T07:22:19;4.22;;;2.45;;
9834;SDS011;69850;50.942;13.748;2023-07-30T07:25:40;2.70;;;2.30;;
9834;SDS011;69850;50.942;13.748;2023-07-30T07:29:01;3.70;;;2.13;;
9834;SDS011;69850;50.942;13.748;2023-07-30T07:32:21;3.85;;;2.30;;
9834;SDS011;69850;50.942;13.748;2023-07-30T07:35:42;3.83;;;2.30;;
9834;SDS011;69850;50.942;13.748;2023-07-30T07:39:03;2.35;;;2.10;;
9834;SDS011;69850;50.942;13.748;2023-07-30T07:42:24;3.72;;;2.05;;
9834;SDS011;69850;50.942;13.748;2023-07-30T07:45:45;3.53;;;2.03;;
9834;SDS011;69850;50.942;13.748;2023-07-30T07:49:05;2.00;;;1.85;;
9834;SDS011;69850;50.942;13.748;2023-07-30T07:52:28;5.03;;;2.13;;
9834;SDS011;69850;50.942;13.748;2023-07-30T07:55:49;2.10;;;1.70;;
9834;SDS011;69850;50.942;13.748;2023-07-30T07:59:09;2.17;;;1.98;;
9834;SDS011;69850;50.942;13.748;2023-07-30T08:02:30;4.68;;;2.20;;
9834;SDS011;69850;50.942;13.748;2023-07-30T08:05:51;2.42;;;1.80;;
9834;SDS011;69850;50.942;13.748;2023-07-30T08:09:11;3.63;;;1.90;;
9834;SDS011;69850;50.942;13.748;2023-07-30T08:12:32;1.95;;;1.85;;
9834;SDS011;69850;50.942;13.748;2023-07-30T08:15:53;2.58;;;1.90;;
9834;SDS011;69850;50.942;13.748;2023-07-30T08:19:14;2.83;;;1.50;;
9834;SDS011;69850;50.942;13.748;2023-07-30T08:22:34;2.30;;;1.60;;
9834;SDS011;69850;50.942;13.748;2023-07-30T08:25:55;2.67;;;1.60;;
9834;SDS011;69850;50.942;13.748;2023-07-30T08:29:16;3.55;;;1.67;;
9834;SDS011;69850;50.942;13.748;2023-07-30T08:32:36;2.13;;;1.80;;
9834;SDS011;69850;50.942;13.748;2023-07-30T08:35:58;2.00;;;1.70;;
9834;SDS011;69850;50.942;13.748;2023-07-30T08:39:19;2.17;;;1.55;;
9834;SDS011;69850;50.942;13.748;2023-07-30T08:42:40;2.40;;;2.05;;
9834;SDS011;69850;50.942;13.748;2023-07-30T08:46:00;1.50;;;1.40;;
9834;SDS011;69850;50.942;13.748;2023-07-30T08:49:22;1.75;;;1.65;;
9834;SDS011;69850;50.942;13.748;2023-07-30T08:52:42;5.35;;;1.63;;
9834;SDS011;69850;50.942;13.748;2023-07-30T08:56:04;1.58;;;1.48;;
9834;SDS011;69850;50.942;13.748;2023-07-30T08:59:25;3.30;;;1.75;;
9834;SDS011;69850;50.942;13.748;2023-07-30T09:02:48;1.70;;;1.60;;
9834;SDS011;69850;50.942;13.748;2023-07-30T09:06:11;2.25;;;2.00;;
9834;SDS011;69850;50.942;13.748;2023-07-30T09:09:31;2.10;;;1.90;;
9834;SDS011;69850;50.942;13.748;2023-07-30T09:12:52;3.03;;;1.90;;
9834;SDS011;69850;50.942;13.748;2023-07-30T09:16:15;5.97;;;1.50;;
9834;SDS011;69850;50.942;13.748;2023-07-30T09:19:35;1.60;;;1.50;;
9834;SDS011;69850;50.942;13.748;2023-07-30T09:22:59;2.55;;;1.95;;
9834;SDS011;69850;50.942;13.748;2023-07-30T09:26:20;1.65;;;1.55;;
9834;SDS011;69850;50.942;13.748;2023-07-30T09:29:49;1.83;;;1.60;;
9834;SDS011;69850;50.942;13.748;2023-07-30T09:33:12;2.13;;;1.92;;
9834;SDS011;69850;50.942;13.748;2023-07-30T09:36:39;2.30;;;1.55;;
9834;SDS011;69850;50.942;13.748;2023-07-30T09:39:59;1.98;;;1.50;;
9834;SDS011;69850;50.942;13.748;2023-07-30T09:43:20;2.10;;;1.80;;
9834;SDS011;69850;50.942;13.748;2023-07-30T09:46:44;1.75;;;1.65;;
9834;SDS011;69850;50.942;13.748;2023-07-30T09:50:07;5.00;;;2.20;;
9834;SDS011;69850;50.942;13.748;2023-07-30T09:53:32;2.92;;;2.17;;
9834;SDS011;69850;50.942;13.748;2023-07-30T09:56:56;2.50;;;2.30;;
9834;SDS011;69850;50.942;13.748;2023-07-30T10:00:17;2.63;;;2.42;;
9834;SDS011;69850;50.942;13.748;2023-07-30T10:03:38;2.72;;;2.28;;
9834;SDS011;69850;50.942;13.748;2023-07-30T10:07:03;3.15;;;2.45;;
9834;SDS011;69850;50.942;13.748;2023-07-30T10:10:29;4.95;;;2.10;;
9834;SDS011;69850;50.942;13.748;2023-07-30T10:13:51;3.28;;;2.05;;
9834;SDS011;69850;50.942;13.748;2023-07-30T10:17:12;3.50;;;2.28;;
9834;SDS011;69850;50.942;13.748;2023-07-30T10:20:33;3.20;;;2.42;;
9834;SDS011;69850;50.942;13.748;2023-07-30T10:23:57;2.42;;;2.22;;
9834;SDS011;69850;50.942;13.748;2023-07-30T10:27:26;4.25;;;2.00;;
9834;SDS011;69850;50.942;13.748;2023-07-30T10:30:58;3.55;;;2.30;;
9834;SDS011;69850;50.942;13.748;2023-07-30T10:34:20;2.47;;;2.28;;
9834;SDS011;69850;50.942;13.748;2023-07-30T10:37:45;1.92;;;1.80;;
9834;SDS011;69850;50.942;13.748;2023-07-30T10:41:08;2.28;;;1.95;;
9834;SDS011;69850;50.942;13.748;2023-07-30T10:44:31;1.88;;;1.65;;
9834;SDS011;69850;50.942;13.748;2023-07-30T10:47:53;2.13;;;1.80;;
9834;SDS011;69850;50.942;13.748;2023-07-30T10:51:24;3.03;;;2.17;;
9834;SDS011;69850;50.942;13.748;2023-07-30T10:54:45;2.03;;;1.50;;
9834;SDS011;69850;50.942;13.748;2023-07-30T10:58:06;1.60;;;1.50;;
9834;SDS011;69850;50.942;13.748;2023-07-30T11:01:28;2.00;;;1.90;;
9834;SDS011;69850;50.942;13.748;2023-07-30T11:04:49;1.80;;;1.70;;
9834;SDS011;69850;50.942;13.748;2023-07-30T11:08:10;1.77;;;1.65;;
9834;SDS011;69850;50.942;13.748;2023-07-30T11:11:31;2.85;;;1.70;;
9834;SDS011;69850;50.942;13.748;2023-07-30T11:14:59;2.58;;;1.65;;
9834;SDS011;69850;50.942;13.748;2023-07-30T11:18:20;1.70;;;1.60;;
9834;SDS011;69850;50.942;13.748;2023-07-30T11:21:45;1.23;;;1.10;;
9834;SDS011;69850;50.942;13.748;2023-07-30T11:25:17;3.05;;;1.55;;
9834;SDS011;69850;50.942;13.748;2023-07-30T11:28:39;1.13;;;1.02;;
9834;SDS011;69850;50.942;13.748;2023-07-30T11:32:00;1.30;;;1.10;;
9834;SDS011;69850;50.942;13.748;2023-07-30T11:35:23;2.15;;;1.27;;
9834;SDS011;69850;50.942;13.748;2023-07-30T11:38:44;1.20;;;1.10;;
9834;SDS011;69850;50.942;13.748;2023-07-30T11:42:05;1.00;;;0.90;;
9834;SDS011;69850;50.942;13.748;2023-07-30T11:45:26;0.57;;;0.57;;
9834;SDS011;69850;50.942;13.748;2023-07-30T11:48:47;0.68;;;0.68;;
9834;SDS011;69850;50.942;13.748;2023-07-30T11:52:10;1.67;;;0.70;;
9834;SDS011;69850;50.942;13.748;2023-07-30T11:55:36;1.65;;;0.80;;
9834;SDS011;69850;50.942;13.748;2023-07-30T11:58:59;1.13;;;0.60;;
9834;SDS011;69850;50.942;13.748;2023-07-30T12:02:22;3.42;;;0.85;;
9834;SDS011;69850;50.942;13.748;2023-07-30T12:05:44;1.02;;;0.93;;
9834;SDS011;69850;50.942;13.748;2023-07-30T12:09:17;2.72;;;0.90;;
9834;SDS011;69850;50.942;13.748;2023-07-30T12:12:45;3.47;;;0.70;;
9834;SDS011;69850;50.942;13.748;2023-07-30T12:16:08;1.00;;;0.90;;
9834;SDS011;69850;50.942;13.748;2023-07-30T12:19:28;1.20;;;1.10;;
9834;SDS011;69850;50.942;13.748;2023-07-30T12:22:49;1.23;;;0.90;;
9834;SDS011;69850;50.942;13.748;2023-07-30T12:26:10;0.82;;;0.82;;
9834;SDS011;69850;50.942;13.748;2023-07-30T12:29:30;1.27;;;0.95;;
9834;SDS011;69850;50.942;13.748;2023-07-30T12:32:51;0.70;;;0.70;;
9834;SDS011;69850;50.942;13.748;2023-07-30T12:36:12;0.93;;;0.90;;
9834;SDS011;69850;50.942;13.748;2023-07-30T12:39:33;0.82;;;0.82;;
9834;SDS011;69850;50.942;13.748;2023-07-30T12:42:53;0.70;;;0.70;;
9834;SDS011;69850;50.942;13.748;2023-07-30T12:46:14;0.80;;;0.80;;
9834;SDS011;69850;50.942;13.748;2023-07-30T12:49:35;1.40;;;0.60;;
9834;SDS011;69850;50.942;13.748;2023-07-30T12:52:56;0.60;;;0.60;;
9834;SDS011;69850;50.942;13.748;2023-07-30T12:56:17;1.50;;;0.80;;
9834;SDS011;69850;50.942;13.748;2023-07-30T12:59:37;1.60;;;0.80;;
9834;SDS011;69850;50.942;13.748;2023-07-30T13:02:58;1.48;;;0.70;;
9834;SDS011;69850;50.942;13.748;2023-07-30T13:06:19;0.75;;;0.70;;
9834;SDS011;69850;50.942;13.748;2023-07-30T13:09:40;0.80;;;0.80;;
9834;SDS011;69850;50.942;13.748;2023-07-30T13:13:01;1.10;;;1.00;;
9834;SDS011;69850;50.942;13.748;2023-07-30T13:16:22;1.02;;;1.00;;
9834;SDS011;69850;50.942;13.748;2023-07-30T13:19:42;0.82;;;0.82;;
9834;SDS011;69850;50.942;13.748;2023-07-30T13:23:03;0.98;;;0.80;;
9834;SDS011;69850;50.942;13.748;2023-07-30T13:26:24;0.82;;;0.82;;
9834;SDS011;69850;50.942;13.748;2023-07-30T13:29:44;1.13;;;1.02;;
9834;SDS011;69850;50.942;13.748;2023-07-30T13:33:05;1.88;;;1.10;;
9834;SDS011;69850;50.942;13.748;2023-07-30T13:36:26;2.45;;;1.20;;
9834;SDS011;69850;50.942;13.748;2023-07-30T13:39:46;1.33;;;0.98;;
9834;SDS011;69850;50.942;13.748;2023-07-30T13:43:07;1.42;;;1.20;;
9834;SDS011;69850;50.942;13.748;2023-07-30T13:46:28;1.20;;;1.10;;
9834;SDS011;69850;50.942;13.748;2023-07-30T13:49:48;1.08;;;1.00;;
9834;SDS011;69850;50.942;13.748;2023-07-30T13:53:09;1.10;;;1.10;;
9834;SDS011;69850;50.942;13.748;2023-07-30T13:56:30;1.42;;;1.10;;
9834;SDS011;69850;50.942;13.748;2023-07-30T13:59:51;2.63;;;1.10;;
9834;SDS011;69850;50.942;13.748;2023-07-30T14:03:12;1.52;;;1.00;;
9834;SDS011;69850;50.942;13.748;2023-07-30T14:06:33;1.15;;;1.10;;
9834;SDS011;69850;50.942;13.748;2023-07-30T14:09:54;3.83;;;1.35;;
9834;SDS011;69850;50.942;13.748;2023-07-30T14:13:14;1.20;;;1.10;;
9834;SDS011;69850;50.942;13.748;2023-07-30T14:16:35;1.20;;;1.10;;
9834;SDS011;69850;50.942;13.748;2023-07-30T14:19:56;1.00;;;0.90;;
9834;SDS011;69850;50.942;13.748;2023-07-30T14:23:17;1.33;;;1.23;;
9834;SDS011;69850;50.942;13.748;2023-07-30T14:26:38;1.25;;;1.15;;
9834;SDS011;69850;50.942;13.748;2023-07-30T14:29:59;1.00;;;1.00;;
9834;SDS011;69850;50.942;13.748;2023-07-30T14:33:20;1.80;;;1.33;;
9834;SDS011;69850;50.942;13.748;2023-07-30T14:36:40;2.75;;;1.05;;
9834;SDS011;69850;50.942;13.748;2023-07-30T14:40:01;1.20;;;1.10;;
9834;SDS011;69850;50.942;13.748;2023-07-30T14:43:22;4.80;;;1.08;;
9834;SDS011;69850;50.942;13.748;2023-07-30T14:46:43;1.65;;;1.10;;
9834;SDS011;69850;50.942;13.748;2023-07-30T14:50:04;1.30;;;1.10;;
9834;SDS011;69850;50.942;13.748;2023-07-30T14:53:26;1.20;;;1.10;;
9834;SDS011;69850;50.942;13.748;2023-07-30T14:56:46;1.02;;;1.02;;
9834;SDS011;69850;50.942;13.748;2023-07-30T15:00:07;1.30;;;1.05;;
9834;SDS011;69850;50.942;13.748;2023-07-30T15:03:30;2.22;;;1.20;;
9834;SDS011;69850;50.942;13.748;2023-07-30T15:06:50;3.00;;;1.20;;
9834;SDS011;69850;50.942;13.748;2023-07-30T15:10:11;3.15;;;0.88;;
9834;SDS011;69850;50.942;13.748;2023-07-30T15:13:32;2.70;;;2.22;;
9834;SDS011;69850;50.942;13.748;2023-07-30T15:16:52;1.50;;;1.38;;
9834;SDS011;69850;50.942;13.748;2023-07-30T15:20:14;3.05;;;1.30;;
9834;SDS011;69850;50.942;13.748;2023-07-30T15:23:34;5.07;;;1.60;;
9834;SDS011;69850;50.942;13.748;2023-07-30T15:26:55;3.90;;;1.30;;
9834;SDS011;69850;50.942;13.748;2023-07-30T15:30:16;2.35;;;1.45;;
9834;SDS011;69850;50.942;13.748;2023-07-30T15:33:36;1.83;;;1.25;;
9834;SDS011;69850;50.942;13.748;2023-07-30T15:36:57;3.97;;;1.15;;
9834;SDS011;69850;50.942;13.748;2023-07-30T15:40:20;1.13;;;1.08;;
9834;SDS011;69850;50.942;13.748;2023-07-30T15:43:41;2.17;;;1.20;;
9834;SDS011;69850;50.942;13.748;2023-07-30T15:47:01;1.45;;;0.90;;
9834;SDS011;69850;50.942;13.748;2023-07-30T15:50:22;1.75;;;1.10;;
9834;SDS011;69850;50.942;13.748;2023-07-30T15:53:44;3.30;;;1.40;;
9834;SDS011;69850;50.942;13.748;2023-07-30T15:57:05;1.52;;;1.20;;
9834;SDS011;69850;50.942;13.748;2023-07-30T16:00:27;1.33;;;1.05;;
9834;SDS011;69850;50.942;13.748;2023-07-30T16:03:48;1.70;;;0.82;;
9834;SDS011;69850;50.942;13.748;2023-07-30T16:07:09;2.53;;;1.00;;
9834;SDS011;69850;50.942;13.748;2023-07-30T16:10:32;1.05;;;0.82;;
9834;SDS011;69850;50.942;13.748;2023-07-30T16:13:52;1.00;;;0.93;;
9834;SDS011;69850;50.942;13.748;2023-07-30T16:17:13;1.73;;;1.00;;
9834;SDS011;69850;50.942;13.748;2023-07-30T16:20:34;1.15;;;0.90;;
9834;SDS011;69850;50.942;13.748;2023-07-30T16:23:54;1.20;;;0.95;;
9834;SDS011;69850;50.942;13.748;2023-07-30T16:27:15;1.45;;;1.33;;
9834;SDS011;69850;50.942;13.748;2023-07-30T16:30:37;4.05;;;1.30;;
9834;SDS011;69850;50.942;13.748;2023-07-30T16:33:57;3.38;;;1.40;;
9834;SDS011;69850;50.942;13.748;2023-07-30T16:37:18;2.42;;;1.45;;
9834;SDS011;69850;50.942;13.748;2023-07-30T16:40:39;5.03;;;1.23;;
9834;SDS011;69850;50.942;13.748;2023-07-30T16:43:59;1.38;;;1.10;;
9834;SDS011;69850;50.942;13.748;2023-07-30T16:47:20;1.70;;;1.42;;
9834;SDS011;69850;50.942;13.748;2023-07-30T16:50:44;1.13;;;0.88;;
9834;SDS011;69850;50.942;13.748;2023-07-30T16:54:08;0.88;;;0.50;;
9834;SDS011;69850;50.942;13.748;2023-07-30T16:57:34;1.55;;;0.47;;
9834;SDS011;69850;50.942;13.748;2023-07-30T17:01:00;2.05;;;0.50;;
9834;SDS011;69850;50.942;13.748;2023-07-30T17:04:21;0.85;;;0.65;;
9834;SDS011;69850;50.942;13.748;2023-07-30T17:07:42;1.85;;;0.57;;
9834;SDS011;69850;50.942;13.748;2023-07-30T17:11:03;2.00;;;0.60;;
9834;SDS011;69850;50.942;13.748;2023-07-30T17:14:28;2.13;;;1.00;;
9834;SDS011;69850;50.942;13.748;2023-07-30T17:17:49;0.98;;;0.63;;
9834;SDS011;69850;50.942;13.748;2023-07-30T17:21:10;0.68;;;0.55;;
9834;SDS011;69850;50.942;13.748;2023-07-30T17:24:34;0.68;;;0.50;;
9834;SDS011;69850;50.942;13.748;2023-07-30T17:27:55;1.15;;;0.70;;
9834;SDS011;69850;50.942;13.748;2023-07-30T17:31:16;1.38;;;0.60;;
9834;SDS011;69850;50.942;13.748;2023-07-30T17:34:36;1.15;;;0.77;;
9834;SDS011;69850;50.942;13.748;2023-07-30T17:37:57;1.02;;;0.68;;
9834;SDS011;69850;50.942;13.748;2023-07-30T17:41:18;1.08;;;0.80;;
9834;SDS011;69850;50.942;13.748;2023-07-30T17:44:38;2.75;;;1.70;;
9834;SDS011;69850;50.942;13.748;2023-07-30T17:48:00;1.90;;;1.13;;
9834;SDS011;69850;50.942;13.748;2023-07-30T17:51:21;2.67;;;1.38;;
9834;SDS011;69850;50.942;13.748;2023-07-30T17:54:42;1.42;;;0.80;;
9834;SDS011;69850;50.942;13.748;2023-07-30T17:58:02;1.60;;;0.90;;
9834;SDS011;69850;50.942;13.748;2023-07-30T18:01:23;1.55;;;1.10;;
9834;SDS011;69850;50.942;13.748;2023-07-30T18:04:44;1.48;;;1.00;;
9834;SDS011;69850;50.942;13.748;2023-07-30T18:08:05;2.35;;;1.20;;
9834;SDS011;69850;50.942;13.748;2023-07-30T18:11:26;2.50;;;1.38;;
9834;SDS011;69850;50.942;13.748;2023-07-30T18:14:47;1.73;;;1.08;;
9834;SDS011;69850;50.942;13.748;2023-07-30T18:18:08;6.60;;;1.27;;
9834;SDS011;69850;50.942;13.748;2023-07-30T18:21:30;2.25;;;1.30;;
9834;SDS011;69850;50.942;13.748;2023-07-30T18:24:50;4.68;;;1.40;;
9834;SDS011;69850;50.942;13.748;2023-07-30T18:28:11;1.77;;;1.20;;
9834;SDS011;69850;50.942;13.748;2023-07-30T18:31:32;3.05;;;1.20;;
9834;SDS011;69850;50.942;13.748;2023-07-30T18:34:53;2.05;;;0.93;;
9834;SDS011;69850;50.942;13.748;2023-07-30T18:38:14;2.88;;;1.20;;
9834;SDS011;69850;50.942;13.748;2023-07-30T18:41:35;2.20;;;1.33;;
9834;SDS011;69850;50.942;13.748;2023-07-30T18:44:57;3.08;;;1.50;;
9834;SDS011;69850;50.942;13.748;2023-07-30T18:48:18;2.25;;;1.42;;
9834;SDS011;69850;50.942;13.748;2023-07-30T18:51:39;1.90;;;1.42;;
9834;SDS011;69850;50.942;13.748;2023-07-30T18:54:59;1.63;;;1.23;;
9834;SDS011;69850;50.942;13.748;2023-07-30T18:58:20;3.33;;;1.27;;
9834;SDS011;69850;50.942;13.748;2023-07-30T19:01:41;3.35;;;1.67;;
9834;SDS011;69850;50.942;13.748;2023-07-30T19:05:02;3.28;;;1.77;;
9834;SDS011;69850;50.942;13.748;2023-07-30T19:08:23;4.13;;;1.70;;
9834;SDS011;69850;50.942;13.748;2023-07-30T19:11:44;3.83;;;1.73;;
9834;SDS011;69850;50.942;13.748;2023-07-30T19:15:05;5.18;;;1.95;;
9834;SDS011;69850;50.942;13.748;2023-07-30T19:18:26;4.10;;;2.28;;
9834;SDS011;69850;50.942;13.748;2023-07-30T19:21:47;4.60;;;2.20;;
9834;SDS011;69850;50.942;13.748;2023-07-30T19:25:07;3.28;;;2.10;;
9834;SDS011;69850;50.942;13.748;2023-07-30T19:28:31;5.13;;;1.95;;
9834;SDS011;69850;50.942;13.748;2023-07-30T19:31:52;3.10;;;2.00;;
9834;SDS011;69850;50.942;13.748;2023-07-30T19:35:14;2.97;;;1.98;;
9834;SDS011;69850;50.942;13.748;2023-07-30T19:38:35;5.28;;;2.30;;
9834;SDS011;69850;50.942;13.748;2023-07-30T19:41:56;5.05;;;2.33;;
9834;SDS011;69850;50.942;13.748;2023-07-30T19:45:16;4.40;;;2.53;;
9834;SDS011;69850;50.942;13.748;2023-07-30T19:48:37;4.07;;;2.38;;
9834;SDS011;69850;50.942;13.748;2023-07-30T19:51:58;4.30;;;2.38;;
9834;SDS011;69850;50.942;13.748;2023-07-30T19:55:18;5.68;;;2.88;;
9834;SDS011;69850;50.942;13.748;2023-07-30T19:58:39;8.48;;;2.60;;
9834;SDS011;69850;50.942;13.748;2023-07-30T20:02:00;6.65;;;2.90;;
9834;SDS011;69850;50.942;13.748;2023-07-30T20:05:20;5.47;;;2.70;;
9834;SDS011;69850;50.942;13.748;2023-07-30T20:08:41;5.00;;;2.67;;
9834;SDS011;69850;50.942;13.748;2023-07-30T20:12:06;3.20;;;2.33;;